sensor_id;sensor_type;location;lat;lon;timestamp;pressure;altitude;pressure_sealevel;temperature;humidity
6038;BME280;3047;42.600;23.470;2023-07-13T00:01:38;93395.75;;;24.17;56.93
6038;BME280;3047;42.600;23.470;2023-07-13T00:04:06;93397.97;;;24.10;58.21
6038;BME280;3047;42.600;23.470;2023-07-13T00:06:33;93397.75;;;24.02;58.42
6038;BME280;3047;42.600;23.470;2023-07-13T00:09:01;93396.81;;;24.03;58.71
6038;BME280;3047;42.600;23.470;2023-07-13T00:11:28;93367.00;;;23.77;59.23
6038;BME280;3047;42.600;23.470;2023-07-13T00:13:55;93386.94;;;23.97;59.36
6038;BME280;3047;42.600;23.470;2023-07-13T00:16:21;93375.31;;;23.69;63.78
6038;BME280;3047;42.600;23.470;2023-07-13T00:18:48;93386.00;;;23.76;63.68
6038;BME280;3047;42.600;23.470;2023-07-13T00:21:16;93385.34;;;23.61;61.35
6038;BME280;3047;42.600;23.470;2023-07-13T00:23:43;93393.94;;;23.73;62.84
6038;BME280;3047;42.600;23.470;2023-07-13T00:26:10;93387.22;;;23.59;60.71
6038;BME280;3047;42.600;23.470;2023-07-13T00:28:38;93381.13;;;23.60;62.28
6038;BME280;3047;42.600;23.470;2023-07-13T00:31:05;93390.03;;;23.56;60.31
6038;BME280;3047;42.600;23.470;2023-07-13T00:33:32;93378.16;;;23.53;59.24
6038;BME280;3047;42.600;23.470;2023-07-13T00:35:58;93370.34;;;23.55;60.26
6038;BME280;3047;42.600;23.470;2023-07-13T00:38:26;93303.94;;;23.23;60.95
6038;BME280;3047;42.600;23.470;2023-07-13T00:40:53;93363.88;;;23.60;62.79
6038;BME280;3047;42.600;23.470;2023-07-13T00:43:22;93364.34;;;23.54;63.83
6038;BME280;3047;42.600;23.470;2023-07-13T00:46:10;93357.28;;;23.45;61.39
6038;BME280;3047;42.600;23.470;2023-07-13T00:48:37;93327.38;;;23.31;60.30
6038;BME280;3047;42.600;23.470;2023-07-13T00:51:05;93358.69;;;23.49;60.69
6038;BME280;3047;42.600;23.470;2023-07-13T00:53:34;93359.72;;;23.35;60.09
6038;BME280;3047;42.600;23.470;2023-07-13T00:56:01;93370.63;;;23.39;61.67
6038;BME280;3047;42.600;23.470;2023-07-13T00:58:28;93370.50;;;23.40;65.07
6038;BME280;3047;42.600;23.470;2023-07-13T01:00:55;93371.31;;;23.30;68.27
6038;BME280;3047;42.600;23.470;2023-07-13T01:03:22;93361.56;;;23.22;64.35
6038;BME280;3047;42.600;23.470;2023-07-13T01:05:50;93365.41;;;23.16;63.74
6038;BME280;3047;42.600;23.470;2023-07-13T01:08:19;93361.41;;;23.12;62.83
6038;BME280;3047;42.600;23.470;2023-07-13T01:10:57;93373.03;;;23.18;67.29
6038;BME280;3047;42.600;23.470;2023-07-13T01:13:25;93348.38;;;23.03;71.99
6038;BME280;3047;42.600;23.470;2023-07-13T01:15:53;93371.72;;;23.12;71.94
6038;BME280;3047;42.600;23.470;2023-07-13T01:18:23;93364.13;;;22.74;67.18
6038;BME280;3047;42.600;23.470;2023-07-13T01:20:53;93355.94;;;22.69;68.00
6038;BME280;3047;42.600;23.470;2023-07-13T01:23:20;93363.94;;;22.77;65.59
6038;BME280;3047;42.600;23.470;2023-07-13T01:25:47;93363.25;;;22.86;64.28
6038;BME280;3047;42.600;23.470;2023-07-13T01:28:14;93356.34;;;22.87;70.89
6038;BME280;3047;42.600;23.470;2023-07-13T01:30:43;93351.88;;;22.78;74.29
6038;BME280;3047;42.600;23.470;2023-07-13T01:33:11;93344.22;;;22.52;68.19
6038;BME280;3047;42.600;23.470;2023-07-13T01:35:38;93351.66;;;22.57;68.15
6038;BME280;3047;42.600;23.470;2023-07-13T01:38:07;93356.13;;;22.66;71.12
6038;BME280;3047;42.600;23.470;2023-07-13T01:40:34;93355.81;;;22.70;73.30
6038;BME280;3047;42.600;23.470;2023-07-13T01:43:01;93355.78;;;22.46;75.38
6038;BME280;3047;42.600;23.470;2023-07-13T01:45:28;93354.47;;;22.41;70.34
6038;BME280;3047;42.600;23.470;2023-07-13T01:47:55;93359.91;;;22.49;74.62
6038;BME280;3047;42.600;23.470;2023-07-13T01:50:23;93357.53;;;22.46;72.71
6038;BME280;3047;42.600;23.470;2023-07-13T01:52:50;93359.28;;;22.45;74.08
6038;BME280;3047;42.600;23.470;2023-07-13T01:55:18;93372.25;;;22.44;75.49
6038;BME280;3047;42.600;23.470;2023-07-13T01:57:45;93368.69;;;22.34;74.34
6038;BME280;3047;42.600;23.470;2023-07-13T02:00:13;93363.66;;;22.19;75.47
6038;BME280;3047;42.600;23.470;2023-07-13T02:02:40;93358.41;;;21.95;75.91
6038;BME280;3047;42.600;23.470;2023-07-13T02:05:07;93363.06;;;21.78;75.35
6038;BME280;3047;42.600;23.470;2023-07-13T02:07:34;93355.66;;;21.73;75.16
6038;BME280;3047;42.600;23.470;2023-07-13T02:10:02;93364.50;;;21.82;77.81
6038;BME280;3047;42.600;23.470;2023-07-13T02:12:30;93366.75;;;21.86;79.36
6038;BME280;3047;42.600;23.470;2023-07-13T02:14:56;93336.63;;;21.50;76.49
6038;BME280;3047;42.600;23.470;2023-07-13T02:17:23;93359.63;;;21.39;77.41
6038;BME280;3047;42.600;23.470;2023-07-13T02:19:50;93365.81;;;21.36;78.30
6038;BME280;3047;42.600;23.470;2023-07-13T02:22:17;93367.66;;;21.34;77.74
6038;BME280;3047;42.600;23.470;2023-07-13T02:24:43;93364.97;;;21.23;77.53
6038;BME280;3047;42.600;23.470;2023-07-13T02:27:10;93362.06;;;21.15;78.24
6038;BME280;3047;42.600;23.470;2023-07-13T02:29:38;93365.53;;;21.14;78.31
6038;BME280;3047;42.600;23.470;2023-07-13T02:32:06;93362.34;;;21.10;78.80
6038;BME280;3047;42.600;23.470;2023-07-13T02:34:32;93364.38;;;21.32;78.81
6038;BME280;3047;42.600;23.470;2023-07-13T02:36:59;93368.41;;;21.36;81.16
6038;BME280;3047;42.600;23.470;2023-07-13T02:39:26;93365.09;;;21.34;79.39
6038;BME280;3047;42.600;23.470;2023-07-13T02:41:52;93362.72;;;21.31;78.27
6038;BME280;3047;42.600;23.470;2023-07-13T02:44:19;93372.63;;;21.50;81.08
6038;BME280;3047;42.600;23.470;2023-07-13T02:46:47;93371.28;;;21.57;79.13
6038;BME280;3047;42.600;23.470;2023-07-13T02:49:14;93360.59;;;21.51;79.95
6038;BME280;3047;42.600;23.470;2023-07-13T02:51:40;93381.47;;;21.59;81.84
6038;BME280;3047;42.600;23.470;2023-07-13T02:54:07;93371.41;;;21.56;80.70
6038;BME280;3047;42.600;23.470;2023-07-13T02:56:34;93367.06;;;21.43;79.24
6038;BME280;3047;42.600;23.470;2023-07-13T02:59:01;93374.13;;;21.27;81.30
6038;BME280;3047;42.600;23.470;2023-07-13T03:01:28;93369.34;;;21.08;80.15
6038;BME280;3047;42.600;23.470;2023-07-13T03:03:56;93350.75;;;21.17;81.70
6038;BME280;3047;42.600;23.470;2023-07-13T03:06:23;93371.09;;;21.47;83.96
6038;BME280;3047;42.600;23.470;2023-07-13T03:08:50;93366.75;;;21.35;81.31
6038;BME280;3047;42.600;23.470;2023-07-13T03:11:18;93372.78;;;21.34;82.92
6038;BME280;3047;42.600;23.470;2023-07-13T03:13:46;93370.09;;;21.23;81.10
6038;BME280;3047;42.600;23.470;2023-07-13T03:16:12;93364.38;;;21.32;80.75
6038;BME280;3047;42.600;23.470;2023-07-13T03:18:41;93362.53;;;21.47;83.39
6038;BME280;3047;42.600;23.470;2023-07-13T03:21:10;93366.25;;;21.56;85.52
6038;BME280;3047;42.600;23.470;2023-07-13T03:23:37;93365.72;;;21.51;83.78
6038;BME280;3047;42.600;23.470;2023-07-13T03:26:05;93369.84;;;21.53;83.59
6038;BME280;3047;42.600;23.470;2023-07-13T03:28:33;93364.91;;;21.50;84.29
6038;BME280;3047;42.600;23.470;2023-07-13T03:31:02;93372.03;;;21.59;86.27
6038;BME280;3047;42.600;23.470;2023-07-13T03:33:29;93370.28;;;21.60;86.16
6038;BME280;3047;42.600;23.470;2023-07-13T03:35:56;93358.63;;;21.54;86.17
6038;BME280;3047;42.600;23.470;2023-07-13T03:38:24;93378.50;;;21.65;86.80
6038;BME280;3047;42.600;23.470;2023-07-13T03:40:51;93376.03;;;21.63;90.61
6038;BME280;3047;42.600;23.470;2023-07-13T03:43:18;93372.53;;;21.64;87.88
6038;BME280;3047;42.600;23.470;2023-07-13T03:45:47;93379.19;;;21.67;87.48
6038;BME280;3047;42.600;23.470;2023-07-13T03:48:14;93370.28;;;21.72;90.45
6038;BME280;3047;42.600;23.470;2023-07-13T03:50:41;93373.66;;;21.73;89.08
6038;BME280;3047;42.600;23.470;2023-07-13T03:53:08;93367.38;;;21.77;90.74
6038;BME280;3047;42.600;23.470;2023-07-13T03:55:36;93371.41;;;21.81;93.33
6038;BME280;3047;42.600;23.470;2023-07-13T03:58:25;93374.19;;;21.65;90.66
6038;BME280;3047;42.600;23.470;2023-07-13T04:00:52;93378.81;;;21.73;92.12
6038;BME280;3047;42.600;23.470;2023-07-13T04:03:19;93367.28;;;21.79;93.32
6038;BME280;3047;42.600;23.470;2023-07-13T04:05:45;93365.31;;;21.82;93.70
6038;BME280;3047;42.600;23.470;2023-07-13T04:08:12;93374.97;;;21.91;94.93
6038;BME280;3047;42.600;23.470;2023-07-13T04:10:40;93372.00;;;21.97;96.46
6038;BME280;3047;42.600;23.470;2023-07-13T04:13:07;93356.78;;;21.94;97.28
6038;BME280;3047;42.600;23.470;2023-07-13T04:15:34;93386.19;;;22.03;98.44
6038;BME280;3047;42.600;23.470;2023-07-13T04:18:00;93388.38;;;22.09;100.00
6038;BME280;3047;42.600;23.470;2023-07-13T04:20:28;93386.44;;;22.13;99.09
6038;BME280;3047;42.600;23.470;2023-07-13T04:22:55;93388.78;;;22.16;97.82
6038;BME280;3047;42.600;23.470;2023-07-13T04:25:22;93382.81;;;22.15;97.62
6038;BME280;3047;42.600;23.470;2023-07-13T04:27:50;93378.41;;;22.17;97.04
6038;BME280;3047;42.600;23.470;2023-07-13T04:30:18;93386.63;;;22.23;95.08
6038;BME280;3047;42.600;23.470;2023-07-13T04:32:44;93381.97;;;22.28;94.78
6038;BME280;3047;42.600;23.470;2023-07-13T04:35:11;93382.38;;;22.34;94.26
6038;BME280;3047;42.600;23.470;2023-07-13T04:37:39;93390.50;;;22.41;95.20
6038;BME280;3047;42.600;23.470;2023-07-13T04:40:07;93379.94;;;22.33;95.27
6038;BME280;3047;42.600;23.470;2023-07-13T04:42:37;93394.81;;;22.53;92.62
6038;BME280;3047;42.600;23.470;2023-07-13T04:45:06;93393.41;;;22.60;92.41
6038;BME280;3047;42.600;23.470;2023-07-13T04:47:33;93393.22;;;22.63;92.00
6038;BME280;3047;42.600;23.470;2023-07-13T04:49:59;93393.50;;;22.71;92.67
6038;BME280;3047;42.600;23.470;2023-07-13T04:52:26;93367.09;;;22.57;90.29
6038;BME280;3047;42.600;23.470;2023-07-13T05:11:21;93424.47;;;23.55;91.18
6038;BME280;3047;42.600;23.470;2023-07-13T05:13:47;93422.00;;;23.53;92.67
6038;BME280;3047;42.600;23.470;2023-07-13T05:16:14;93417.94;;;23.62;89.20
6038;BME280;3047;42.600;23.470;2023-07-13T05:18:41;93421.03;;;23.67;91.37
6038;BME280;3047;42.600;23.470;2023-07-13T05:21:09;93429.03;;;23.75;91.79
6038;BME280;3047;42.600;23.470;2023-07-13T05:23:36;93430.91;;;23.84;90.99
6038;BME280;3047;42.600;23.470;2023-07-13T05:26:03;93379.25;;;23.62;87.09
6038;BME280;3047;42.600;23.470;2023-07-13T05:28:32;93410.75;;;23.89;87.13
6038;BME280;3047;42.600;23.470;2023-07-13T05:30:59;93420.50;;;24.08;86.64
6038;BME280;3047;42.600;23.470;2023-07-13T05:33:26;93419.69;;;24.08;86.35
6038;BME280;3047;42.600;23.470;2023-07-13T05:35:53;93426.13;;;24.02;93.79
6038;BME280;3047;42.600;23.470;2023-07-13T05:38:19;93424.38;;;24.03;95.46
6038;BME280;3047;42.600;23.470;2023-07-13T05:40:46;93428.03;;;24.11;95.46
6038;BME280;3047;42.600;23.470;2023-07-13T05:43:14;93418.41;;;24.13;97.31
6038;BME280;3047;42.600;23.470;2023-07-13T05:45:42;93437.53;;;24.33;94.19
6038;BME280;3047;42.600;23.470;2023-07-13T05:48:09;93434.63;;;24.38;94.22
6038;BME280;3047;42.600;23.470;2023-07-13T05:50:35;93433.59;;;24.52;92.46
6038;BME280;3047;42.600;23.470;2023-07-13T05:53:02;93435.00;;;24.56;94.49
6038;BME280;3047;42.600;23.470;2023-07-13T05:55:29;93440.13;;;24.67;94.66
6038;BME280;3047;42.600;23.470;2023-07-13T05:57:56;93433.22;;;24.67;92.83
6038;BME280;3047;42.600;23.470;2023-07-13T06:00:23;93438.25;;;24.80;94.94
6038;BME280;3047;42.600;23.470;2023-07-13T06:02:52;93429.19;;;24.86;95.40
6038;BME280;3047;42.600;23.470;2023-07-13T06:05:19;93435.16;;;24.98;92.20
6038;BME280;3047;42.600;23.470;2023-07-13T06:07:45;93442.78;;;25.10;92.28
6038;BME280;3047;42.600;23.470;2023-07-13T06:10:12;93435.97;;;25.21;91.33
6038;BME280;3047;42.600;23.470;2023-07-13T06:12:39;93431.00;;;25.29;90.85
6038;BME280;3047;42.600;23.470;2023-07-13T06:15:07;93434.59;;;25.37;89.87
6038;BME280;3047;42.600;23.470;2023-07-13T06:17:33;93429.75;;;25.44;89.85
6038;BME280;3047;42.600;23.470;2023-07-13T06:20:01;93429.69;;;25.55;89.30
6038;BME280;3047;42.600;23.470;2023-07-13T06:22:28;93429.31;;;25.60;87.30
6038;BME280;3047;42.600;23.470;2023-07-13T06:24:55;93419.69;;;25.62;83.38
6038;BME280;3047;42.600;23.470;2023-07-13T06:27:22;93427.78;;;25.69;83.34
6038;BME280;3047;42.600;23.470;2023-07-13T06:29:48;93432.22;;;25.78;82.95
6038;BME280;3047;42.600;23.470;2023-07-13T06:32:15;93436.88;;;25.84;81.92
6038;BME280;3047;42.600;23.470;2023-07-13T06:34:42;93433.22;;;25.86;87.40
6038;BME280;3047;42.600;23.470;2023-07-13T06:37:10;93436.06;;;25.83;82.95
6038;BME280;3047;42.600;23.470;2023-07-13T06:39:37;93435.09;;;25.84;85.37
6038;BME280;3047;42.600;23.470;2023-07-13T06:42:04;93436.19;;;25.82;83.12
6038;BME280;3047;42.600;23.470;2023-07-13T06:44:31;93431.59;;;25.85;79.93
6038;BME280;3047;42.600;23.470;2023-07-13T06:46:58;93446.84;;;25.88;81.14
6038;BME280;3047;42.600;23.470;2023-07-13T06:49:25;93427.34;;;25.84;81.54
6038;BME280;3047;42.600;23.470;2023-07-13T06:51:52;93434.38;;;25.94;82.27
6038;BME280;3047;42.600;23.470;2023-07-13T06:54:20;93441.75;;;25.98;83.78
6038;BME280;3047;42.600;23.470;2023-07-13T06:56:46;93441.22;;;26.04;81.05
6038;BME280;3047;42.600;23.470;2023-07-13T06:59:13;93440.31;;;26.05;82.25
6038;BME280;3047;42.600;23.470;2023-07-13T07:01:40;93432.81;;;26.12;79.51
6038;BME280;3047;42.600;23.470;2023-07-13T07:04:06;93436.13;;;26.14;77.30
6038;BME280;3047;42.600;23.470;2023-07-13T07:06:33;93430.94;;;26.14;80.37
6038;BME280;3047;42.600;23.470;2023-07-13T07:09:00;93437.50;;;26.18;76.79
6038;BME280;3047;42.600;23.470;2023-07-13T07:11:28;93435.13;;;26.36;77.57
6038;BME280;3047;42.600;23.470;2023-07-13T07:13:55;93431.47;;;26.38;75.25
6038;BME280;3047;42.600;23.470;2023-07-13T07:16:24;93432.97;;;26.41;75.55
6038;BME280;3047;42.600;23.470;2023-07-13T07:18:51;93442.84;;;26.47;74.15
6038;BME280;3047;42.600;23.470;2023-07-13T07:21:17;93443.59;;;26.59;72.52
6038;BME280;3047;42.600;23.470;2023-07-13T07:23:44;93434.06;;;26.69;77.06
6038;BME280;3047;42.600;23.470;2023-07-13T07:26:11;93445.72;;;26.84;70.35
6038;BME280;3047;42.600;23.470;2023-07-13T07:28:39;93444.09;;;26.93;70.70
6038;BME280;3047;42.600;23.470;2023-07-13T07:31:06;93436.59;;;27.00;69.85
6038;BME280;3047;42.600;23.470;2023-07-13T07:33:33;93432.16;;;27.11;69.21
6038;BME280;3047;42.600;23.470;2023-07-13T07:36:00;93429.16;;;27.26;67.79
6038;BME280;3047;42.600;23.470;2023-07-13T07:38:27;93417.03;;;27.36;69.52
6038;BME280;3047;42.600;23.470;2023-07-13T07:40:54;93410.06;;;27.36;70.86
6038;BME280;3047;42.600;23.470;2023-07-13T07:43:21;93435.88;;;27.67;67.93
6038;BME280;3047;42.600;23.470;2023-07-13T07:45:49;93411.16;;;27.82;66.37
6038;BME280;3047;42.600;23.470;2023-07-13T07:48:15;93417.00;;;27.94;63.29
6038;BME280;3047;42.600;23.470;2023-07-13T07:50:42;93423.94;;;28.13;66.01
6038;BME280;3047;42.600;23.470;2023-07-13T07:53:11;93421.03;;;28.26;62.39
6038;BME280;3047;42.600;23.470;2023-07-13T07:55:38;93395.31;;;28.32;63.65
6038;BME280;3047;42.600;23.470;2023-07-13T07:58:05;93406.91;;;28.48;61.50
6038;BME280;3047;42.600;23.470;2023-07-13T08:00:32;93418.84;;;28.68;62.97
6038;BME280;3047;42.600;23.470;2023-07-13T08:03:02;93413.56;;;28.88;62.15
6038;BME280;3047;42.600;23.470;2023-07-13T08:05:29;93412.13;;;29.03;60.67
6038;BME280;3047;42.600;23.470;2023-07-13T08:07:55;93414.75;;;29.21;61.43
6038;BME280;3047;42.600;23.470;2023-07-13T08:10:22;93415.88;;;29.36;59.65
6038;BME280;3047;42.600;23.470;2023-07-13T08:12:49;93383.25;;;29.42;58.72
6038;BME280;3047;42.600;23.470;2023-07-13T08:15:18;93380.94;;;29.56;60.79
6038;BME280;3047;42.600;23.470;2023-07-13T08:17:46;93390.31;;;29.93;61.28
6038;BME280;3047;42.600;23.470;2023-07-13T08:20:15;93390.38;;;30.19;56.68
6038;BME280;3047;42.600;23.470;2023-07-13T08:22:42;93383.00;;;30.41;59.95
6038;BME280;3047;42.600;23.470;2023-07-13T08:25:08;93383.66;;;30.77;57.42
6038;BME280;3047;42.600;23.470;2023-07-13T08:27:35;93387.97;;;31.02;58.51
6038;BME280;3047;42.600;23.470;2023-07-13T08:30:02;93349.59;;;30.87;54.16
6038;BME280;3047;42.600;23.470;2023-07-13T08:32:31;93363.88;;;31.17;53.49
6038;BME280;3047;42.600;23.470;2023-07-13T08:34:57;93354.28;;;31.34;52.27
6038;BME280;3047;42.600;23.470;2023-07-13T08:37:25;93379.09;;;31.70;51.49
6038;BME280;3047;42.600;23.470;2023-07-13T08:39:52;93376.81;;;31.75;52.36
6038;BME280;3047;42.600;23.470;2023-07-13T08:42:30;93369.66;;;31.86;51.88
6038;BME280;3047;42.600;23.470;2023-07-13T08:45:06;93384.50;;;32.10;50.93
6038;BME280;3047;42.600;23.470;2023-07-13T08:47:39;93385.78;;;32.22;48.09
6038;BME280;3047;42.600;23.470;2023-07-13T08:50:10;93382.97;;;32.40;49.13
6038;BME280;3047;42.600;23.470;2023-07-13T08:52:41;93378.50;;;32.57;49.29
6038;BME280;3047;42.600;23.470;2023-07-13T08:55:13;93369.94;;;32.71;47.37
6038;BME280;3047;42.600;23.470;2023-07-13T08:57:43;93351.31;;;32.74;48.07
6038;BME280;3047;42.600;23.470;2023-07-13T09:00:13;93371.22;;;32.83;48.75
6038;BME280;3047;42.600;23.470;2023-07-13T09:02:45;93379.34;;;32.88;48.81
6038;BME280;3047;42.600;23.470;2023-07-13T09:05:14;93381.28;;;33.03;47.26
6038;BME280;3047;42.600;23.470;2023-07-13T09:07:57;93390.06;;;33.10;47.83
6038;BME280;3047;42.600;23.470;2023-07-13T09:10:29;93387.91;;;33.13;47.81
6038;BME280;3047;42.600;23.470;2023-07-13T09:13:27;93393.28;;;33.20;47.61
6038;BME280;3047;42.600;23.470;2023-07-13T09:15:59;93401.22;;;33.35;50.40
6038;BME280;3047;42.600;23.470;2023-07-13T09:18:32;93405.09;;;33.47;48.44
6038;BME280;3047;42.600;23.470;2023-07-13T09:21:03;93418.28;;;33.54;46.92
6038;BME280;3047;42.600;23.470;2023-07-13T09:23:32;93430.75;;;33.75;50.25
6038;BME280;3047;42.600;23.470;2023-07-13T09:26:04;93417.22;;;33.71;46.25
6038;BME280;3047;42.600;23.470;2023-07-13T09:28:35;93426.34;;;33.75;46.65
6038;BME280;3047;42.600;23.470;2023-07-13T09:31:06;93419.78;;;33.79;47.84
6038;BME280;3047;42.600;23.470;2023-07-13T09:33:33;93414.69;;;33.78;45.56
6038;BME280;3047;42.600;23.470;2023-07-13T09:36:00;93423.22;;;33.80;44.92
6038;BME280;3047;42.600;23.470;2023-07-13T09:38:28;93422.28;;;33.72;45.00
6038;BME280;3047;42.600;23.470;2023-07-13T09:41:17;93427.63;;;33.79;44.44
6038;BME280;3047;42.600;23.470;2023-07-13T09:44:01;93423.00;;;33.81;45.67
6038;BME280;3047;42.600;23.470;2023-07-13T09:46:28;93419.66;;;33.72;44.94
6038;BME280;3047;42.600;23.470;2023-07-13T09:48:55;93403.28;;;33.70;46.62
6038;BME280;3047;42.600;23.470;2023-07-13T09:51:22;93410.66;;;33.90;45.02
6038;BME280;3047;42.600;23.470;2023-07-13T09:53:49;93401.94;;;33.98;43.21
6038;BME280;3047;42.600;23.470;2023-07-13T09:56:21;93409.94;;;34.04;44.22
6038;BME280;3047;42.600;23.470;2023-07-13T09:58:48;93411.28;;;34.15;45.73
6038;BME280;3047;42.600;23.470;2023-07-13T10:01:15;93407.03;;;34.14;44.57
6038;BME280;3047;42.600;23.470;2023-07-13T10:03:57;93396.00;;;34.18;41.34
6038;BME280;3047;42.600;23.470;2023-07-13T10:06:24;93384.97;;;34.23;43.62
6038;BME280;3047;42.600;23.470;2023-07-13T10:08:52;93380.31;;;34.33;45.99
6038;BME280;3047;42.600;23.470;2023-07-13T10:11:22;93390.97;;;34.47;44.99
6038;BME280;3047;42.600;23.470;2023-07-13T10:13:51;93387.06;;;34.42;43.95
6038;BME280;3047;42.600;23.470;2023-07-13T10:16:21;93381.97;;;34.49;43.79
6038;BME280;3047;42.600;23.470;2023-07-13T10:18:49;93363.22;;;34.37;42.41
6038;BME280;3047;42.600;23.470;2023-07-13T10:21:18;93374.78;;;34.43;43.33
6038;BME280;3047;42.600;23.470;2023-07-13T10:23:49;93360.22;;;34.40;44.15
6038;BME280;3047;42.600;23.470;2023-07-13T10:26:22;93376.78;;;34.56;43.67
6038;BME280;3047;42.600;23.470;2023-07-13T10:28:53;93372.44;;;34.63;43.22
6038;BME280;3047;42.600;23.470;2023-07-13T10:31:22;93358.72;;;34.61;41.75
6038;BME280;3047;42.600;23.470;2023-07-13T10:33:50;93370.28;;;34.52;41.99
6038;BME280;3047;42.600;23.470;2023-07-13T10:36:29;93372.81;;;34.60;42.99
6038;BME280;3047;42.600;23.470;2023-07-13T10:38:59;93367.50;;;34.68;45.05
6038;BME280;3047;42.600;23.470;2023-07-13T10:41:30;93367.56;;;34.75;43.27
6038;BME280;3047;42.600;23.470;2023-07-13T10:43:59;93369.53;;;34.87;40.64
6038;BME280;3047;42.600;23.470;2023-07-13T10:46:28;93362.28;;;34.89;41.33
6038;BME280;3047;42.600;23.470;2023-07-13T10:48:58;93352.31;;;35.00;42.09
6038;BME280;3047;42.600;23.470;2023-07-13T10:51:27;93357.47;;;35.08;39.52
6038;BME280;3047;42.600;23.470;2023-07-13T10:54:16;93359.53;;;35.12;39.34
6038;BME280;3047;42.600;23.470;2023-07-13T10:56:45;93356.38;;;35.17;38.96
6038;BME280;3047;42.600;23.470;2023-07-13T10:59:15;93347.16;;;35.28;40.27
6038;BME280;3047;42.600;23.470;2023-07-13T11:01:54;93336.94;;;35.33;40.66
6038;BME280;3047;42.600;23.470;2023-07-13T11:04:22;93337.41;;;35.43;37.66
6038;BME280;3047;42.600;23.470;2023-07-13T11:06:52;93333.06;;;35.50;38.91
6038;BME280;3047;42.600;23.470;2023-07-13T11:09:36;93324.81;;;35.53;41.78
6038;BME280;3047;42.600;23.470;2023-07-13T11:12:18;93330.88;;;35.54;37.54
6038;BME280;3047;42.600;23.470;2023-07-13T11:15:04;93319.75;;;35.52;39.13
6038;BME280;3047;42.600;23.470;2023-07-13T11:17:37;93307.28;;;35.39;39.56
6038;BME280;3047;42.600;23.470;2023-07-13T11:20:20;93324.63;;;35.55;36.14
6038;BME280;3047;42.600;23.470;2023-07-13T11:22:50;93318.00;;;35.59;36.38
6038;BME280;3047;42.600;23.470;2023-07-13T11:25:25;93309.91;;;35.60;35.16
6038;BME280;3047;42.600;23.470;2023-07-13T11:28:13;93307.25;;;35.54;37.39
6038;BME280;3047;42.600;23.470;2023-07-13T11:30:43;93286.94;;;35.48;37.04
6038;BME280;3047;42.600;23.470;2023-07-13T11:33:20;93309.31;;;35.65;37.13
6038;BME280;3047;42.600;23.470;2023-07-13T11:35:57;93307.34;;;35.67;38.67
6038;BME280;3047;42.600;23.470;2023-07-13T11:38:30;93295.34;;;35.58;39.30
6038;BME280;3047;42.600;23.470;2023-07-13T11:41:01;93293.41;;;35.45;37.80
6038;BME280;3047;42.600;23.470;2023-07-13T11:43:31;93296.63;;;35.47;36.59
6038;BME280;3047;42.600;23.470;2023-07-13T11:46:12;93294.94;;;35.39;37.23
6038;BME280;3047;42.600;23.470;2023-07-13T11:48:39;93297.13;;;35.36;34.98
6038;BME280;3047;42.600;23.470;2023-07-13T11:51:12;93293.91;;;35.34;35.25
6038;BME280;3047;42.600;23.470;2023-07-13T11:53:46;93289.25;;;35.36;37.36
6038;BME280;3047;42.600;23.470;2023-07-13T11:56:14;93296.53;;;35.34;36.42
6038;BME280;3047;42.600;23.470;2023-07-13T11:58:42;93280.69;;;35.27;36.66
6038;BME280;3047;42.600;23.470;2023-07-13T12:01:16;93285.66;;;35.37;36.68
6038;BME280;3047;42.600;23.470;2023-07-13T12:03:45;93284.25;;;35.20;35.08
6038;BME280;3047;42.600;23.470;2023-07-13T12:06:24;93281.38;;;35.14;34.05
6038;BME280;3047;42.600;23.470;2023-07-13T12:08:56;93278.13;;;35.12;36.07
6038;BME280;3047;42.600;23.470;2023-07-13T12:11:22;93266.50;;;35.00;36.23
6038;BME280;3047;42.600;23.470;2023-07-13T12:13:50;93264.91;;;34.84;35.17
6038;BME280;3047;42.600;23.470;2023-07-13T12:16:23;93267.09;;;34.81;36.50
6038;BME280;3047;42.600;23.470;2023-07-13T12:18:53;93248.44;;;34.54;36.25
6038;BME280;3047;42.600;23.470;2023-07-13T12:21:26;93263.25;;;34.62;37.10
6038;BME280;3047;42.600;23.470;2023-07-13T12:23:55;93266.78;;;34.54;36.23
6038;BME280;3047;42.600;23.470;2023-07-13T12:26:21;93243.38;;;34.38;36.22
6038;BME280;3047;42.600;23.470;2023-07-13T12:28:51;93251.81;;;34.48;37.99
6038;BME280;3047;42.600;23.470;2023-07-13T12:31:29;93243.63;;;34.43;36.62
6038;BME280;3047;42.600;23.470;2023-07-13T12:33:59;93243.38;;;34.38;35.61
6038;BME280;3047;42.600;23.470;2023-07-13T12:36:26;93229.00;;;34.34;39.18
6038;BME280;3047;42.600;23.470;2023-07-13T12:38:57;93244.06;;;34.47;41.60
6038;BME280;3047;42.600;23.470;2023-07-13T12:41:24;93242.66;;;34.44;38.57
6038;BME280;3047;42.600;23.470;2023-07-13T12:43:54;93239.72;;;34.39;37.86
6038;BME280;3047;42.600;23.470;2023-07-13T12:46:24;93188.81;;;33.97;37.85
6038;BME280;3047;42.600;23.470;2023-07-13T12:48:54;93232.88;;;34.23;38.82
6038;BME280;3047;42.600;23.470;2023-07-13T12:51:25;93226.66;;;34.24;38.13
6038;BME280;3047;42.600;23.470;2023-07-13T12:53:57;93224.97;;;34.16;38.63
6038;BME280;3047;42.600;23.470;2023-07-13T12:56:26;93219.06;;;34.14;38.95
6038;BME280;3047;42.600;23.470;2023-07-13T12:58:58;93213.13;;;34.06;40.70
6038;BME280;3047;42.600;23.470;2023-07-13T13:01:28;93202.72;;;33.98;39.73
6038;BME280;3047;42.600;23.470;2023-07-13T13:03:56;93211.41;;;33.98;39.10
6038;BME280;3047;42.600;23.470;2023-07-13T13:06:25;93192.84;;;33.85;38.64
6038;BME280;3047;42.600;23.470;2023-07-13T13:08:54;93208.78;;;33.98;38.90
6038;BME280;3047;42.600;23.470;2023-07-13T13:11:23;93209.59;;;33.84;37.39
6038;BME280;3047;42.600;23.470;2023-07-13T13:13:51;93185.53;;;33.65;37.60
6038;BME280;3047;42.600;23.470;2023-07-13T13:16:23;93201.81;;;33.76;39.25
6038;BME280;3047;42.600;23.470;2023-07-13T13:18:51;93193.59;;;33.64;39.12
6038;BME280;3047;42.600;23.470;2023-07-13T13:21:18;93196.38;;;33.62;38.70
6038;BME280;3047;42.600;23.470;2023-07-13T13:23:46;93168.38;;;33.48;40.33
6038;BME280;3047;42.600;23.470;2023-07-13T13:26:14;93198.72;;;33.57;41.48
6038;BME280;3047;42.600;23.470;2023-07-13T13:28:42;93172.31;;;33.44;41.33
6038;BME280;3047;42.600;23.470;2023-07-13T13:31:09;93172.41;;;33.36;40.70
6038;BME280;3047;42.600;23.470;2023-07-13T13:33:39;93188.78;;;33.53;40.97
6038;BME280;3047;42.600;23.470;2023-07-13T13:36:14;93187.53;;;33.49;41.02